Time;durP1;ratioP1;P1;durP2;ratioP2;P2;SDS_P1;SDS_P2;PMS_P1;PMS_P2;Temp;Humidity;BMP_temperature;BMP_pressure;BME280_temperature;BME280_humidity;BME280_pressure;Samples;Min_cycle;Max_cycle;Signal;HPM_P1;HPM_P2
2022/07/13 00:00:04;;;;;;;9.30;7.60;;;19.60;99.90;;;;;;5075981;28;20497;-50
2022/07/13 00:02:30;;;;;;;11.50;7.50;;;18.80;99.90;;;;;;5078153;28;20036;-47
2022/07/13 00:04:55;;;;;;;8.23;6.60;;;20.50;99.90;;;;;;5074941;28;20501;-47
2022/07/13 00:07:21;;;;;;;8.50;7.07;;;18.50;99.90;;;;;;5076427;28;20036;-50
2022/07/13 00:09:50;;;;;;;9.50;6.75;;;18.70;99.90;;;;;;5075838;28;20036;-47
2022/07/13 00:12:17;;;;;;;9.38;7.53;;;18.60;99.90;;;;;;5074926;28;20285;-48
2022/07/13 00:14:43;;;;;;;7.88;7.07;;;18.70;99.90;;;;;;5076558;28;20043;-47
2022/07/13 00:17:09;;;;;;;7.93;6.88;;;18.50;99.90;;;;;;5076859;28;20441;-48
2022/07/13 00:19:34;;;;;;;8.23;6.68;;;18.60;99.90;;;;;;5075153;28;20119;-48
2022/07/13 00:22:00;;;;;;;9.27;6.57;;;18.20;99.90;;;;;;5076471;28;20106;-47
2022/07/13 00:24:26;;;;;;;8.38;7.40;;;18.20;99.90;;;;;;5075819;28;20347;-48
2022/07/13 00:26:51;;;;;;;8.80;7.10;;;18.50;99.90;;;;;;5073371;28;20044;-47
2022/07/13 00:29:17;;;;;;;12.88;7.53;;;18.60;99.90;;;;;;5075594;28;20032;-52
2022/07/13 00:31:43;;;;;;;10.63;7.93;;;18.50;99.90;;;;;;5074998;28;20113;-46
2022/07/13 00:34:10;;;;;;;9.02;6.95;;;18.40;99.90;;;;;;5076649;28;20082;-48
2022/07/13 00:36:37;;;;;;;10.50;8.13;;;18.40;99.90;;;;;;5076193;28;20059;-50
2022/07/13 00:39:03;;;;;;;10.13;7.75;;;18.50;99.90;;;;;;5074569;28;20113;-46
2022/07/13 00:41:30;;;;;;;10.48;7.38;;;18.60;99.90;;;;;;5076650;28;20056;-48
2022/07/13 00:44:07;;;;;;;10.75;7.57;;;18.40;99.90;;;;;;5076865;28;20398;-47
2022/07/13 00:46:36;;;;;;;18.20;7.65;;;18.60;99.90;;;;;;5057905;28;20044;-47
2022/07/13 00:49:02;;;;;;;9.13;7.43;;;20.30;99.90;;;;;;5075862;28;20047;-47
2022/07/13 00:51:29;;;;;;;9.80;7.72;;;18.60;99.90;;;;;;5076816;28;20040;-49
2022/07/13 00:53:55;;;;;;;8.10;7.18;;;18.70;99.90;;;;;;5074205;28;20032;-51
2022/07/13 00:56:22;;;;;;;9.18;7.75;;;19.00;99.90;;;;;;5076137;28;20507;-48
2022/07/13 00:58:50;;;;;;;10.02;6.88;;;18.50;99.90;;;;;;5075577;28;20512;-47
2022/07/13 01:01:16;;;;;;;10.27;7.20;;;19.90;99.90;;;;;;5075464;28;20075;-48
2022/07/13 01:03:41;;;;;;;9.57;7.50;;;18.70;99.90;;;;;;5075391;28;20552;-47
2022/07/13 01:06:08;;;;;;;9.35;7.60;;;19.00;99.90;;;;;;5075710;28;20047;-50
2022/07/13 01:08:34;;;;;;;10.70;7.78;;;18.80;99.90;;;;;;5075230;28;20127;-47
2022/07/13 01:11:01;;;;;;;9.40;7.85;;;18.70;99.90;;;;;;5075426;28;20142;-47
2022/07/13 01:13:27;;;;;;;8.90;7.75;;;20.90;99.90;;;;;;5075193;28;20039;-49
2022/07/13 01:15:53;;;;;;;10.45;7.90;;;19.80;99.90;;;;;;5075563;28;20641;-47
2022/07/13 01:18:19;;;;;;;10.13;8.10;;;18.90;99.90;;;;;;5080784;28;20044;-49
2022/07/13 01:20:48;;;;;;;11.65;7.28;;;18.70;99.90;;;;;;5077779;28;20032;-49
2022/07/13 01:23:14;;;;;;;11.75;7.43;;;19.60;99.90;;;;;;5079032;28;20113;-48
2022/07/13 01:25:41;;;;;;;10.10;8.45;;;18.90;99.90;;;;;;5078672;28;20936;-53
2022/07/13 01:28:07;;;;;;;10.32;8.93;;;19.00;99.90;;;;;;5079285;28;20040;-48
2022/07/13 01:30:35;;;;;;;9.82;8.07;;;18.70;99.90;;;;;;5079552;28;20219;-47
2022/07/13 01:33:01;;;;;;;10.50;8.52;;;18.80;99.90;;;;;;5079607;28;20040;-47
2022/07/13 01:35:26;;;;;;;9.77;7.70;;;18.80;99.90;;;;;;5079250;28;20121;-51
2022/07/13 01:37:55;;;;;;;8.85;7.90;;;17.70;99.90;;;;;;5078620;28;20181;-47
2022/07/13 01:40:20;;;;;;;9.68;8.48;;;18.90;99.90;;;;;;5078851;28;20052;-48
2022/07/13 01:42:53;;;;;;;9.30;8.32;;;21.10;99.90;;;;;;5079260;28;20189;-48
2022/07/13 01:45:22;;;;;;;10.95;8.75;;;19.10;99.90;;;;;;5078973;28;20554;-48
2022/07/13 01:47:50;;;;;;;12.52;8.55;;;19.10;99.90;;;;;;5078176;28;20067;-49
2022/07/13 01:50:18;;;;;;;9.55;8.55;;;18.80;99.90;;;;;;5079014;28;20035;-48
2022/07/13 01:52:44;;;;;;;12.43;8.88;;;20.90;99.90;;;;;;5079233;28;20117;-50
2022/07/13 01:55:12;;;;;;;11.85;8.77;;;18.90;99.90;;;;;;5079502;28;20040;-47
2022/07/13 01:57:39;;;;;;;14.48;9.40;;;21.10;99.90;;;;;;5077280;28;20047;-47
2022/07/13 02:00:12;;;;;;;10.38;8.88;;;20.30;99.90;;;;;;5077971;28;20055;-47
2022/07/13 02:02:38;;;;;;;13.57;9.45;;;19.20;99.90;;;;;;5077751;28;20036;-49
2022/07/13 02:05:04;;;;;;;11.75;8.60;;;19.00;99.90;;;;;;5079344;28;20094;-51
2022/07/13 02:07:30;;;;;;;11.00;9.27;;;19.20;99.90;;;;;;5077629;28;20066;-47
2022/07/13 02:09:58;;;;;;;10.48;9.05;;;19.20;99.90;;;;;;5079320;28;20355;-47
2022/07/13 02:12:23;;;;;;;13.57;8.98;;;19.30;99.90;;;;;;5079243;28;20135;-48
2022/07/13 02:14:49;;;;;;;12.80;9.10;;;19.30;99.90;;;;;;5078651;28;20084;-49
2022/07/13 02:17:15;;;;;;;10.10;9.02;;;19.80;99.90;;;;;;5078178;28;20051;-49
2022/07/13 02:19:40;;;;;;;10.27;8.57;;;19.20;99.90;;;;;;5059581;28;21055;-47
2022/07/13 02:22:07;;;;;;;9.52;8.43;;;19.80;99.90;;;;;;5077691;28;20047;-48
2022/07/13 02:24:34;;;;;;;10.90;8.57;;;19.40;99.50;;;;;;5078650;28;20036;-47
2022/07/13 02:27:00;;;;;;;11.20;8.30;;;20.20;99.30;;;;;;5059092;28;20630;-47
2022/07/13 02:29:25;;;;;;;9.63;8.25;;;19.40;98.70;;;;;;5078276;28;20032;-50
2022/07/13 02:31:51;;;;;;;12.68;8.85;;;19.40;98.20;;;;;;5078279;28;20112;-49
2022/07/13 02:34:18;;;;;;;12.90;8.82;;;21.50;98.20;;;;;;5078091;28;20043;-49
2022/07/13 02:36:44;;;;;;;10.10;7.97;;;19.50;97.50;;;;;;5078401;28;20040;-49
2022/07/13 02:39:10;;;;;;;9.80;8.80;;;19.60;97.10;;;;;;5076680;28;20056;-47
2022/07/13 02:41:37;;;;;;;10.32;7.95;;;19.40;96.70;;;;;;5077662;28;20039;-47
2022/07/13 02:44:03;;;;;;;10.68;8.18;;;19.40;96.50;;;;;;5078471;28;20116;-49
2022/07/13 02:46:28;;;;;;;10.25;8.48;;;19.30;96.20;;;;;;5058723;28;20052;-48
2022/07/13 02:48:56;;;;;;;11.20;8.48;;;19.40;96.30;;;;;;5077034;28;20173;-47
2022/07/13 02:51:24;;;;;;;10.82;8.80;;;19.60;96.00;;;;;;5077071;28;20037;-47
2022/07/13 02:53:49;;;;;;;12.00;8.93;;;19.50;96.00;;;;;;5077579;28;20497;-49
2022/07/13 02:56:15;;;;;;;11.30;8.40;;;19.50;95.70;;;;;;5059725;28;20040;-50
2022/07/13 02:58:40;;;;;;;11.82;8.93;;;19.60;95.40;;;;;;5078122;28;20032;-47
2022/07/13 03:01:06;;;;;;;11.63;8.73;;;19.50;95.20;;;;;;5078456;28;20048;-47
2022/07/13 03:03:32;;;;;;;13.60;8.88;;;19.50;95.30;;;;;;5077827;28;20040;-48
2022/07/13 03:05:58;;;;;;;16.30;8.70;;;19.50;95.00;;;;;;5078288;28;20044;-49
2022/07/13 03:08:23;;;;;;;11.05;9.10;;;19.50;94.90;;;;;;5077861;28;20105;-48
2022/07/13 03:10:49;;;;;;;10.15;8.43;;;19.50;95.00;;;;;;5076382;28;20694;-47
2022/07/13 03:13:16;;;;;;;14.68;8.75;;;21.00;95.40;;;;;;5077426;28;20405;-47
2022/07/13 03:15:42;;;;;;;9.27;8.05;;;20.00;95.20;;;;;;5078008;28;20036;-52
2022/07/13 03:18:08;;;;;;;12.02;8.52;;;19.90;95.00;;;;;;5077896;28;20411;-48
2022/07/13 03:20:35;;;;;;;10.98;8.32;;;19.50;94.50;;;;;;5078521;28;20505;-51
2022/07/13 03:23:03;;;;;;;10.30;8.18;;;19.70;94.80;;;;;;5077184;28;20413;-47
2022/07/13 03:25:29;;;;;;;13.27;7.93;;;20.50;95.10;;;;;;5077342;28;20044;-52
2022/07/13 03:27:54;;;;;;;13.57;8.60;;;19.50;94.60;;;;;;5077420;28;20043;-48
2022/07/13 03:30:20;;;;;;;10.30;8.07;;;20.70;94.60;;;;;;5077349;28;20040;-50
2022/07/13 03:32:46;;;;;;;10.52;8.38;;;19.30;94.20;;;;;;5076772;28;20239;-50
2022/07/13 03:35:12;;;;;;;9.00;7.90;;;19.50;93.90;;;;;;5077889;28;20043;-47
2022/07/13 03:37:39;;;;;;;11.50;7.68;;;19.90;94.20;;;;;;5077857;28;20032;-49
2022/07/13 03:40:06;;;;;;;10.52;8.18;;;20.50;94.10;;;;;;5076532;28;20044;-48
2022/07/13 03:42:34;;;;;;;10.00;7.82;;;19.70;93.30;;;;;;5078525;28;20071;-48
2022/07/13 03:45:00;;;;;;;11.55;8.32;;;21.90;93.90;;;;;;5075755;28;20517;-50
2022/07/13 03:47:25;;;;;;;8.50;7.60;;;19.40;93.20;;;;;;5076394;28;20042;-52
2022/07/13 03:49:51;;;;;;;16.23;8.88;;;19.60;93.20;;;;;;5075241;28;20054;-49
2022/07/13 03:52:21;;;;;;;8.00;7.15;;;20.10;93.30;;;;;;5075536;28;20688;-49
2022/07/13 03:54:48;;;;;;;9.82;8.15;;;21.40;93.50;;;;;;5075315;28;20036;-49
2022/07/13 03:57:14;;;;;;;9.20;6.78;;;20.60;93.10;;;;;;5075869;28;20044;-48
2022/07/13 03:59:40;;;;;;;15.32;8.43;;;19.40;92.50;;;;;;5075371;28;20041;-49
2022/07/13 04:02:05;;;;;;;8.45;7.60;;;19.30;92.30;;;;;;5074960;28;20036;-48
2022/07/13 04:04:31;;;;;;;9.38;8.10;;;19.50;92.40;;;;;;5076011;28;20040;-49
2022/07/13 04:06:57;;;;;;;12.25;7.38;;;19.60;92.20;;;;;;5058043;28;20064;-53
2022/07/13 04:09:22;;;;;;;8.93;8.02;;;19.50;92.10;;;;;;5077732;28;20123;-53
2022/07/13 04:11:48;;;;;;;9.95;7.72;;;20.00;91.60;;;;;;5076688;28;20122;-48
2022/07/13 04:14:14;;;;;;;10.55;7.63;;;20.30;91.60;;;;;;5058314;28;20391;-52
2022/07/13 04:16:40;;;;;;;8.88;7.13;;;20.10;91.10;;;;;;5076827;28;20047;-49
2022/07/13 04:19:08;;;;;;;10.50;7.72;;;19.70;90.40;;;;;;5075463;28;21724;-49
2022/07/13 04:21:33;;;;;;;9.40;7.75;;;19.60;90.60;;;;;;5076791;28;20524;-53
2022/07/13 04:23:59;;;;;;;8.93;7.57;;;19.70;90.10;;;;;;5076282;28;20052;-53
2022/07/13 04:26:26;;;;;;;8.68;6.97;;;21.80;89.50;;;;;;5076429;28;20039;-52
2022/07/13 04:28:52;;;;;;;10.65;7.03;;;20.50;88.90;;;;;;5075923;28;20049;-49
2022/07/13 04:31:18;;;;;;;10.27;7.35;;;19.60;87.20;;;;;;5075790;28;20032;-52
2022/07/13 04:33:45;;;;;;;9.70;7.85;;;19.80;86.50;;;;;;5077013;28;20139;-51
2022/07/13 04:36:11;;;;;;;11.75;7.93;;;20.00;86.40;;;;;;5077095;28;20048;-50
2022/07/13 04:38:36;;;;;;;9.43;7.75;;;19.70;86.20;;;;;;5075602;28;20113;-49
2022/07/13 04:41:04;;;;;;;9.18;7.47;;;19.90;86.90;;;;;;5056566;28;20040;-48
2022/07/13 04:43:30;;;;;;;12.20;7.38;;;19.80;87.00;;;;;;5075318;28;20583;-49
2022/07/13 04:45:56;;;;;;;10.02;8.63;;;19.90;87.20;;;;;;5075730;28;20043;-50
2022/07/13 04:48:22;;;;;;;10.00;7.13;;;19.80;87.00;;;;;;5076683;28;20040;-50
2022/07/13 04:50:51;;;;;;;11.38;7.68;;;19.40;86.80;;;;;;5075013;28;20668;-54
2022/07/13 04:53:17;;;;;;;11.63;7.90;;;19.90;86.90;;;;;;5057358;28;20044;-49
2022/07/13 04:55:43;;;;;;;9.77;8.77;;;19.80;86.80;;;;;;5075486;28;20034;-51
2022/07/13 04:58:08;;;;;;;10.27;8.60;;;19.90;87.30;;;;;;5074328;28;20557;-51
2022/07/13 05:00:35;;;;;;;11.00;8.82;;;20.40;88.50;;;;;;5092289;28;20040;-52
2022/07/13 05:03:00;;;;;;;9.90;8.27;;;19.90;89.40;;;;;;5076016;28;20072;-48
2022/07/13 05:05:31;;;;;;;10.85;8.60;;;19.90;90.10;;;;;;5076374;28;20517;-48
2022/07/13 05:08:01;;;;;;;10.30;8.68;;;19.70;90.50;;;;;;5075392;28;20040;-53
2022/07/13 05:10:28;;;;;;;11.48;8.68;;;19.70;90.20;;;;;;5074381;28;20529;-53
2022/07/13 05:12:55;;;;;;;11.23;8.40;;;19.80;91.40;;;;;;5075740;28;20039;-54
2022/07/13 05:15:23;;;;;;;10.77;9.50;;;20.00;91.60;;;;;;5075257;28;20036;-51
2022/07/13 05:17:50;;;;;;;10.57;8.98;;;19.80;91.40;;;;;;5075514;28;20122;-50
2022/07/13 05:20:16;;;;;;;10.93;8.68;;;20.20;91.80;;;;;;5075563;28;20109;-49
2022/07/13 05:22:41;;;;;;;10.43;8.38;;;19.60;91.90;;;;;;5042129;28;20044;-53
2022/07/13 05:25:07;;;;;;;10.73;8.15;;;19.70;92.20;;;;;;5075706;28;20051;-54
2022/07/13 05:27:33;;;;;;;10.88;8.73;;;19.70;92.10;;;;;;5076224;28;20719;-53
2022/07/13 05:30:01;;;;;;;10.45;8.38;;;20.00;92.50;;;;;;5074267;28;20105;-52
2022/07/13 05:32:27;;;;;;;9.93;8.27;;;19.80;92.90;;;;;;5075729;28;20044;-48
2022/07/13 05:34:53;;;;;;;9.93;8.90;;;21.40;94.00;;;;;;5075381;28;20058;-50
2022/07/13 05:37:19;;;;;;;12.93;9.95;;;21.90;94.50;;;;;;5075420;28;20032;-54
2022/07/13 05:39:47;;;;;;;15.18;10.02;;;19.80;94.30;;;;;;5075161;28;20048;-49
2022/07/13 05:42:13;;;;;;;15.55;9.98;;;19.80;95.20;;;;;;5075229;28;20044;-54
2022/07/13 05:44:39;;;;;;;13.32;9.82;;;19.80;95.60;;;;;;5057890;28;20093;-53
2022/07/13 05:47:07;;;;;;;14.50;10.02;;;19.50;96.20;;;;;;5075325;28;20587;-50
2022/07/13 05:49:33;;;;;;;13.27;9.95;;;19.80;96.50;;;;;;5074877;28;20489;-48
2022/07/13 05:51:59;;;;;;;13.85;9.35;;;19.80;97.10;;;;;;5075353;28;20048;-51
2022/07/13 05:54:25;;;;;;;15.55;9.25;;;19.80;97.40;;;;;;5076001;28;20057;-54
2022/07/13 05:56:50;;;;;;;10.43;8.73;;;20.70;97.80;;;;;;5075724;28;20040;-52
2022/07/13 05:59:16;;;;;;;13.63;9.13;;;19.90;97.90;;;;;;5075549;28;20390;-48
2022/07/13 06:01:42;;;;;;;12.55;10.38;;;19.90;97.60;;;;;;5074813;28;20417;-50
2022/07/13 06:04:07;;;;;;;11.20;9.02;;;20.40;98.00;;;;;;5078160;28;20442;-51
2022/07/13 06:06:33;;;;;;;12.48;8.75;;;19.90;97.90;;;;;;5079762;28;20048;-49
2022/07/13 06:08:59;;;;;;;12.57;9.65;;;20.10;98.50;;;;;;5061002;28;20047;-53
2022/07/13 06:11:24;;;;;;;13.90;10.55;;;20.10;98.70;;;;;;5078522;28;20136;-51
2022/07/13 06:13:50;;;;;;;10.60;9.50;;;20.00;99.00;;;;;;5078468;28;20044;-53
2022/07/13 06:16:15;;;;;;;10.63;9.00;;;20.20;99.50;;;;;;5078694;28;21977;-48
2022/07/13 06:18:41;;;;;;;12.35;9.68;;;20.10;99.60;;;;;;5079054;28;20032;-53
2022/07/13 06:21:09;;;;;;;15.10;9.70;;;20.10;99.90;;;;;;5078265;28;20100;-50
2022/07/13 06:23:35;;;;;;;10.82;9.30;;;20.30;99.90;;;;;;5060436;28;20036;-50
2022/07/13 06:26:01;;;;;;;12.10;9.23;;;20.30;99.90;;;;;;5078631;28;20055;-49
2022/07/13 06:28:26;;;;;;;14.13;9.75;;;20.60;99.90;;;;;;5077211;28;20040;-54
2022/07/13 06:30:54;;;;;;;14.38;10.10;;;20.60;99.50;;;;;;5094620;27;20139;-50
2022/07/13 06:33:20;;;;;;;12.65;8.90;;;20.70;99.80;;;;;;5059712;28;20515;-49
2022/07/13 06:35:46;;;;;;;12.65;9.70;;;20.60;99.60;;;;;;5077568;28;20081;-49
2022/07/13 06:38:14;;;;;;;10.60;9.32;;;20.80;98.40;;;;;;5078838;28;20522;-49
2022/07/13 06:40:40;;;;;;;12.43;8.70;;;21.10;99.10;;;;;;5076009;28;20075;-49
2022/07/13 06:43:05;;;;;;;11.55;9.07;;;21.30;98.50;;;;;;5078434;28;20119;-49
2022/07/13 06:45:34;;;;;;;12.40;8.90;;;21.50;95.30;;;;;;5078476;28;20044;-53
2022/07/13 06:48:00;;;;;;;12.98;8.07;;;21.50;95.60;;;;;;5077363;28;20047;-50
2022/07/13 06:50:26;;;;;;;10.77;7.15;;;22.00;95.00;;;;;;5077939;28;20068;-55
2022/07/13 06:52:52;;;;;;;11.15;7.07;;;22.10;92.50;;;;;;5078133;28;20637;-49
2022/07/13 06:55:19;;;;;;;9.50;6.22;;;22.30;90.90;;;;;;5076894;28;20044;-51
2022/07/13 06:57:45;;;;;;;9.00;5.90;;;22.50;84.10;;;;;;5078575;28;20048;-49
2022/07/13 07:00:11;;;;;;;10.07;6.03;;;23.00;75.40;;;;;;5077675;28;20032;-54
2022/07/13 07:02:39;;;;;;;10.57;5.93;;;23.30;72.90;;;;;;5077540;28;20085;-52
2022/07/13 07:05:09;;;;;;;9.20;5.78;;;24.30;64.90;;;;;;5077769;28;20070;-51
2022/07/13 07:07:35;;;;;;;9.05;5.63;;;25.20;30.70;;;;;;5077037;28;20291;-51
2022/07/13 07:10:00;;;;;;;10.52;5.93;;;26.20;1.00;;;;;;5077093;28;20043;-52
2022/07/13 07:12:26;;;;;;;8.32;5.07;;;26.70;1.00;;;;;;5077700;28;20032;-51
2022/07/13 07:14:52;;;;;;;13.25;6.30;;;27.20;1.00;;;;;;5077270;28;20036;-49
2022/07/13 07:17:19;;;;;;;12.77;6.38;;;27.80;1.00;;;;;;5077473;28;20606;-54
2022/07/13 07:19:45;;;;;;;8.95;5.90;;;28.60;99.90;;;;;;5076869;28;20036;-54
2022/07/13 07:22:12;;;;;;;9.10;5.50;;;28.80;99.90;;;;;;5076794;28;20501;-54
2022/07/13 07:24:38;;;;;;;10.38;5.07;;;28.90;43.70;;;;;;5077658;28;20040;-51
2022/07/13 07:27:07;;;;;;;9.15;5.60;;;29.80;1.00;;;;;;5076634;28;20131;-51
2022/07/13 07:29:34;;;;;;;13.50;5.22;;;30.30;79.10;;;;;;5076783;28;20051;-52
2022/07/13 07:32:04;;;;;;;8.15;5.30;;;30.60;99.90;;;;;;5059691;28;20048;-55
2022/07/13 07:34:30;;;;;;;10.25;6.40;;;31.10;99.90;;;;;;5077622;28;20032;-54
2022/07/13 07:36:55;;;;;;;10.65;5.70;;;31.70;99.90;;;;;;5077660;28;21278;-53
2022/07/13 07:39:22;;;;;;;8.93;4.97;;;32.00;99.90;;;;;;5076964;28;20052;-53
2022/07/13 07:41:48;;;;;;;7.90;5.13;;;32.00;99.90;;;;;;5076034;28;20104;-55
2022/07/13 07:44:14;;;;;;;10.25;5.60;;;32.30;92.90;;;;;;5075258;28;20036;-56
2022/07/13 07:46:41;;;;;;;7.97;4.88;;;32.50;99.90;;;;;;5058475;28;20548;-56
2022/07/13 07:49:06;;;;;;;8.13;5.07;;;33.00;99.90;;;;;;5076576;28;20094;-56
2022/07/13 07:51:32;;;;;;;9.50;5.38;;;33.10;20.00;;;;;;5077559;28;20044;-56
2022/07/13 07:53:58;;;;;;;7.90;5.03;;;32.90;1.00;;;;;;5075590;28;20040;-57
2022/07/13 07:56:24;;;;;;;8.40;4.70;;;32.90;1.00;;;;;;5076863;28;20039;-56
2022/07/13 07:58:51;;;;;;;10.32;5.13;;;32.80;99.90;;;;;;5076644;28;20031;-56
2022/07/13 08:01:16;;;;;;;7.57;4.32;;;32.90;99.90;;;;;;5076595;28;20043;-57
2022/07/13 08:03:42;;;;;;;11.13;5.05;;;33.00;99.90;;;;;;5076880;28;20044;-56
2022/07/13 08:06:08;;;;;;;10.80;4.95;;;32.70;99.90;;;;;;5076771;28;20036;-57
2022/07/13 08:08:37;;;;;;;10.00;4.72;;;33.20;99.90;;;;;;5076098;28;20044;-56
2022/07/13 08:11:03;;;;;;;8.45;5.05;;;33.00;99.90;;;;;;5076563;28;20075;-56
2022/07/13 08:13:30;;;;;;;9.05;4.85;;;33.00;99.90;;;;;;5076652;28;20503;-57
2022/07/13 08:15:57;;;;;;;7.18;4.00;;;33.30;99.90;;;;;;5076220;28;20513;-56
2022/07/13 08:18:23;;;;;;;10.57;4.65;;;33.20;99.90;;;;;;5075377;28;20505;-55
2022/07/13 08:20:48;;;;;;;10.80;4.22;;;33.20;99.90;;;;;;5075999;28;20036;-56
2022/07/13 08:25:58;;;;;;;6.53;3.72;;;32.90;64.80;;;;;;5076170;28;20067;-57
2022/07/13 08:28:24;;;;;;;7.13;3.30;;;33.00;1.00;;;;;;5075988;28;20588;-56
2022/07/13 08:30:50;;;;;;;6.68;4.18;;;32.60;1.00;;;;;;5075927;28;20044;-57
2022/07/13 08:33:17;;;;;;;8.52;4.25;;;32.50;4.70;;;;;;5075045;28;20050;-56
2022/07/13 08:38:37;;;;;;;6.75;3.80;;;32.40;1.00;;;;;;5075990;28;20102;-56
2022/07/13 08:41:05;;;;;;;6.22;3.20;;;32.40;1.00;;;;;;5076110;28;20134;-56
2022/07/13 08:43:33;;;;;;;8.32;4.30;;;32.60;1.00;;;;;;5076508;28;20047;-56
2022/07/13 08:46:02;;;;;;;8.52;3.88;;;32.70;1.00;;;;;;5075241;28;20575;-56
2022/07/13 08:48:32;;;;;;;7.35;3.28;;;32.40;1.00;;;;;;5075734;28;20054;-56
2022/07/13 08:50:58;;;;;;;9.52;3.22;;;32.50;1.00;;;;;;5074981;28;20547;-57
2022/07/13 08:53:24;;;;;;;7.90;3.70;;;32.10;1.00;;;;;;5075441;28;20036;-56
2022/07/13 08:55:50;;;;;;;7.00;3.63;;;32.00;1.00;;;;;;5074575;28;21071;-57
2022/07/13 08:58:17;;;;;;;7.07;3.35;;;31.90;1.00;;;;;;5076420;28;20117;-56
2022/07/13 09:00:43;;;;;;;8.68;4.38;;;31.10;1.00;;;;;;5075903;28;20149;-56
2022/07/13 09:03:09;;;;;;;9.10;4.38;;;30.90;1.00;;;;;;5074787;28;20078;-56
2022/07/13 09:05:35;;;;;;;6.68;3.90;;;30.80;1.00;;;;;;5076326;28;20548;-56
2022/07/13 09:08:05;;;;;;;6.35;2.85;;;31.00;1.00;;;;;;5076406;28;20189;-57
2022/07/13 09:10:53;;;;;;;7.03;2.70;;;30.80;1.00;;;;;;5073875;28;20130;-56
2022/07/13 09:13:44;;;;;;;5.57;2.53;;;31.10;1.00;;;;;;5075942;28;20063;-57
2022/07/13 09:16:18;;;;;;;5.95;2.58;;;31.20;1.00;;;;;;5075506;28;20756;-57
2022/07/13 09:18:49;;;;;;;8.05;3.40;;;30.90;1.00;;;;;;5075886;28;20509;-57
2022/07/13 09:21:18;;;;;;;6.22;3.25;;;31.10;1.00;;;;;;5075487;28;20040;-57
2022/07/13 09:23:49;;;;;;;5.60;3.25;;;30.80;1.00;;;;;;5075205;28;20044;-58
2022/07/13 09:26:16;;;;;;;6.15;3.47;;;30.70;1.00;;;;;;5075584;28;20127;-56
2022/07/13 09:28:46;;;;;;;8.88;2.45;;;30.80;1.00;;;;;;5073483;28;20051;-55
2022/07/13 09:31:13;;;;;;;5.82;2.72;;;30.10;1.00;;;;;;5073714;28;20072;-56
2022/07/13 09:33:40;;;;;;;6.30;2.90;;;29.70;1.00;;;;;;5075472;28;20724;-57
2022/07/13 09:36:11;;;;;;;6.40;2.65;;;29.60;1.00;;;;;;5075760;28;20048;-56
2022/07/13 09:38:39;;;;;;;5.78;2.72;;;29.50;1.00;;;;;;5075913;28;20040;-55
2022/07/13 09:41:24;;;;;;;7.93;3.65;;;29.20;1.00;;;;;;5043568;28;20052;-55
2022/07/13 09:46:53;;;;;;;5.60;2.90;;;29.00;1.00;;;;;;5079888;28;20052;-56
2022/07/13 09:49:40;;;;;;;4.10;2.55;;;28.70;1.00;;;;;;5078410;28;20027;-56
2022/07/13 09:52:12;;;;;;;9.52;3.65;;;28.80;1.00;;;;;;5079027;28;20051;-55
2022/07/13 09:54:39;;;;;;;7.63;2.50;;;28.60;1.00;;;;;;5079512;28;20036;-54
2022/07/13 09:57:12;;;;;;;7.18;2.97;;;28.80;2.70;;;;;;5078379;28;20048;-56
2022/07/13 09:59:42;;;;;;;6.55;2.97;;;28.70;21.60;;;;;;5079360;28;20046;-56
2022/07/13 10:02:09;;;;;;;6.82;3.47;;;28.70;24.90;;;;;;5079073;28;20048;-57
2022/07/13 10:04:36;;;;;;;7.47;2.45;;;28.70;14.30;;;;;;5078389;28;20060;-55
2022/07/13 10:07:02;;;;;;;5.35;1.98;;;28.60;1.00;;;;;;5080071;28;20585;-51
2022/07/13 10:11:58;;;;;;;4.75;2.67;;;28.70;1.50;;;;;;5060598;28;20070;-55
2022/07/13 10:14:25;;;;;;;7.57;2.65;;;29.00;8.80;;;;;;5079172;28;20083;-54
2022/07/13 10:16:52;;;;;;;6.15;2.55;;;28.80;10.30;;;;;;5079171;28;20043;-55
2022/07/13 10:19:20;;;;;;;8.27;4.40;;;28.90;1.00;;;;;;5078003;28;20505;-54
2022/07/13 10:22:06;;;;;;;8.90;4.50;;;29.00;21.00;;;;;;5078261;28;20055;-54
2022/07/13 10:24:33;;;;;;;7.65;3.85;;;28.40;1.00;;;;;;5078907;28;20046;-54
2022/07/13 10:27:21;;;;;;;10.98;4.07;;;28.50;16.20;;;;;;5078098;28;20028;-53
2022/07/13 10:29:53;;;;;;;7.05;4.18;;;28.60;1.00;;;;;;5077435;28;20067;-54
2022/07/13 10:32:30;;;;;;;10.13;4.75;;;28.50;18.60;;;;;;5077949;28;20036;-53
2022/07/13 10:35:04;;;;;;;6.35;3.60;;;28.50;1.00;;;;;;5078131;28;20052;-54
2022/07/13 10:37:56;;;;;;;8.57;3.88;;;28.60;14.90;;;;;;5078226;28;20047;-55
2022/07/13 10:40:31;;;;;;;7.22;3.42;;;28.60;29.50;;;;;;4994537;28;20053;-54
2022/07/13 10:42:58;;;;;;;9.35;4.10;;;28.80;1.00;;;;;;4981194;28;20206;-54
2022/07/13 10:45:53;;;;;;;10.27;3.40;;;28.70;24.30;;;;;;4994379;28;20100;-53
2022/07/13 10:48:22;;;;;;;9.00;3.85;;;28.60;7.10;;;;;;4992017;28;20057;-55
2022/07/13 10:50:54;;;;;;;6.28;3.13;;;28.40;4.10;;;;;;4994294;28;20076;-52
2022/07/13 10:53:42;;;;;;;7.15;3.17;;;28.60;1.00;;;;;;4994865;28;20128;-54
2022/07/13 10:56:20;;;;;;;9.98;4.00;;;28.30;9.10;;;;;;4994756;28;20037;-51
2022/07/13 10:58:49;;;;;;;6.45;3.45;;;28.50;1.00;;;;;;4994775;28;20137;-53
2022/07/13 11:01:38;;;;;;;5.72;3.15;;;28.10;1.00;;;;;;4994844;28;20034;-54
2022/07/13 11:04:07;;;;;;;6.53;2.65;;;28.20;1.00;;;;;;4995051;28;20072;-54
2022/07/13 11:06:33;;;;;;;7.30;2.60;;;28.30;9.50;;;;;;4995512;28;20041;-51
2022/07/13 11:09:20;;;;;;;4.80;2.42;;;28.50;1.00;;;;;;4995131;28;20104;-52
2022/07/13 11:11:53;;;;;;;6.53;2.28;;;28.40;1.00;;;;;;4994347;28;20060;-53
2022/07/13 11:14:41;;;;;;;4.20;2.15;;;28.30;1.00;;;;;;4993872;28;20042;-52
2022/07/13 11:17:16;;;;;;;5.72;2.00;;;28.20;1.00;;;;;;5032784;28;20056;-53
2022/07/13 11:20:11;;;;;;;5.05;2.30;;;28.10;1.00;;;;;;5077872;28;20055;-55
2022/07/13 11:25:55;;;;;;;5.07;1.70;;;28.50;1.00;;;;;;4953277;28;20085;-54
2022/07/13 11:28:31;;;;;;;5.78;1.92;;;28.10;1.00;;;;;;4954754;28;20146;-51
2022/07/13 11:31:02;;;;;;;6.28;1.80;;;28.20;12.50;;;;;;4955822;28;20050;-55
2022/07/13 11:33:27;;;;;;;5.28;2.25;;;28.20;32.40;;;;;;4954779;28;20042;-53
2022/07/13 11:35:54;;;;;;;5.70;1.90;;;27.60;13.70;;;;;;4954698;28;20097;-51
2022/07/13 11:38:22;;;;;;;4.40;2.10;;;27.30;24.20;;;;;;4955304;28;20061;-54
2022/07/13 11:40:48;;;;;;;4.03;1.98;;;27.10;26.50;;;;;;4955870;28;20827;-49
2022/07/13 11:43:14;;;;;;;8.02;1.98;;;27.10;38.10;;;;;;4954611;28;20053;-55
2022/07/13 11:45:41;;;;;;;8.48;2.13;;;26.90;34.90;;;;;;4954146;28;20544;-50
2022/07/13 11:48:15;;;;;;;4.90;2.85;;;26.80;41.80;;;;;;4955809;28;20043;-51
2022/07/13 11:50:52;;;;;;;5.97;2.22;;;26.70;92.90;;;;;;4952922;28;20062;-53
2022/07/13 11:53:28;;;;;;;6.25;2.72;;;26.50;99.90;;;;;;4953620;28;20054;-54
2022/07/13 11:55:58;;;;;;;8.93;2.30;;;26.80;99.90;;;;;;4956462;28;20094;-51
2022/07/13 11:58:28;;;;;;;7.30;2.85;;;26.20;99.90;;;;;;4962847;28;20054;-53
2022/07/13 12:00:55;;;;;;;3.55;2.00;;;26.20;99.90;;;;;;4993765;28;20074;-53
2022/07/13 12:03:32;;;;;;;7.28;2.60;;;27.90;99.90;;;;;;5051702;28;21016;-50
2022/07/13 12:06:00;;;;;;;6.53;2.05;;;26.30;99.90;;;;;;5075719;28;20039;-54
2022/07/13 12:08:26;;;;;;;5.80;2.33;;;26.10;99.90;;;;;;5076944;28;20768;-49
2022/07/13 12:10:52;;;;;;;5.10;2.70;;;25.90;99.90;;;;;;5075669;28;20035;-51
2022/07/13 12:13:18;;;;;;;7.63;2.30;;;26.00;99.90;;;;;;5076960;28;20043;-48
2022/07/13 12:15:44;;;;;;;7.88;3.22;;;25.90;99.90;;;;;;5076391;28;20051;-43
2022/07/13 12:18:12;;;;;;;5.40;2.58;;;25.80;1.00;;;;;;5075900;28;20036;-45
2022/07/13 12:20:38;;;;;;;5.60;1.92;;;25.80;1.00;;;;;;5076510;28;20069;-43
2022/07/13 12:23:07;;;;;;;6.25;1.95;;;25.60;1.00;;;;;;5077273;28;20155;-48
2022/07/13 12:25:39;;;;;;;8.43;2.33;;;25.70;1.00;;;;;;5076496;28;20040;-44
2022/07/13 12:28:08;;;;;;;5.03;1.95;;;25.70;58.00;;;;;;5076517;28;20056;-48
2022/07/13 12:30:37;;;;;;;10.60;2.80;;;25.40;77.70;;;;;;5076658;28;20565;-45
2022/07/13 12:33:10;;;;;;;7.70;2.20;;;26.20;99.90;;;;;;5058867;28;20056;-43
2022/07/13 12:35:40;;;;;;;5.72;1.92;;;25.00;99.90;;;;;;5076587;28;20036;-43
2022/07/13 12:38:13;;;;;;;8.03;2.40;;;25.10;99.90;;;;;;5076585;28;20500;-47
2022/07/13 12:40:55;;;;;;;6.78;1.95;;;24.80;1.00;;;;;;5075430;28;20330;-46
2022/07/13 12:43:21;;;;;;;;;;;24.70;1.00;;;;;;5076876;28;20126;-45
2022/07/13 12:46:01;;;;;;;8.95;2.10;;;24.70;99.90;;;;;;5076126;28;19924;-44
2022/07/13 12:48:29;;;;;;;5.55;1.80;;;24.80;99.10;;;;;;5076486;28;20113;-44
2022/07/13 12:51:00;;;;;;;6.97;1.98;;;25.00;99.90;;;;;;5076659;28;20048;-48
2022/07/13 12:53:45;;;;;;;7.43;2.25;;;24.90;99.90;;;;;;5076639;28;20113;-44
2022/07/13 12:56:11;;;;;;;6.18;1.80;;;25.40;99.90;;;;;;5075317;28;20110;-48
2022/07/13 12:58:43;;;;;;;11.88;3.08;;;25.00;1.00;;;;;;5076341;28;20043;-44
2022/07/13 13:01:09;;;;;;;7.15;2.17;;;25.20;1.00;;;;;;5076009;28;20054;-45
2022/07/13 13:03:35;;;;;;;10.52;2.58;;;25.30;1.00;;;;;;5076456;28;20123;-46